sensor_id;sensor_type;location;lat;lon;timestamp;pressure;altitude;pressure_sealevel;temperature;humidity
61742;BME280;47650;49.848;9.620;2022-10-31T00:00:59;100100.47;;;13.80;74.26
61742;BME280;47650;49.848;9.620;2022-10-31T00:03:25;100104.97;;;13.79;74.24
61742;BME280;47650;49.848;9.620;2022-10-31T00:05:51;100091.88;;;13.68;74.28
61742;BME280;47650;49.848;9.620;2022-10-31T00:08:17;100097.13;;;13.78;73.61
61742;BME280;47650;49.848;9.620;2022-10-31T00:10:43;100069.59;;;13.51;73.21
61742;BME280;47650;49.848;9.620;2022-10-31T00:13:13;100100.03;;;13.66;73.51
61742;BME280;47650;49.848;9.620;2022-10-31T00:15:40;100097.38;;;13.66;73.43
61742;BME280;47650;49.848;9.620;2022-10-31T00:18:07;100101.34;;;13.62;73.82
61742;BME280;47650;49.848;9.620;2022-10-31T00:20:33;100084.22;;;13.47;73.15
61742;BME280;47650;49.848;9.620;2022-10-31T00:23:00;100066.16;;;13.41;72.86
61742;BME280;47650;49.848;9.620;2022-10-31T00:25:27;100108.66;;;13.60;72.63
61742;BME280;47650;49.848;9.620;2022-10-31T00:27:53;100101.19;;;13.64;73.29
61742;BME280;47650;49.848;9.620;2022-10-31T00:30:20;100091.66;;;13.61;73.41
61742;BME280;47650;49.848;9.620;2022-10-31T00:32:45;100103.38;;;13.68;73.16
61742;BME280;47650;49.848;9.620;2022-10-31T00:35:11;100067.25;;;13.48;72.96
61742;BME280;47650;49.848;9.620;2022-10-31T00:37:37;100099.06;;;13.67;72.86
61742;BME280;47650;49.848;9.620;2022-10-31T00:40:03;100064.25;;;13.51;72.92
61742;BME280;47650;49.848;9.620;2022-10-31T00:42:30;100104.75;;;13.72;72.74
61742;BME280;47650;49.848;9.620;2022-10-31T00:44:56;100081.84;;;13.62;72.66
61742;BME280;47650;49.848;9.620;2022-10-31T00:47:22;100099.56;;;13.71;72.94
61742;BME280;47650;49.848;9.620;2022-10-31T00:49:47;100092.41;;;13.71;72.82
61742;BME280;47650;49.848;9.620;2022-10-31T00:52:15;100052.78;;;13.32;72.48
61742;BME280;47650;49.848;9.620;2022-10-31T00:54:40;100094.94;;;13.55;73.18
61742;BME280;47650;49.848;9.620;2022-10-31T00:57:05;100082.28;;;13.39;73.85
61742;BME280;47650;49.848;9.620;2022-10-31T00:59:30;100102.47;;;13.42;73.66
61742;BME280;47650;49.848;9.620;2022-10-31T01:01:56;100108.19;;;13.47;73.83
61742;BME280;47650;49.848;9.620;2022-10-31T01:04:21;100108.56;;;13.52;73.92
61742;BME280;47650;49.848;9.620;2022-10-31T01:06:46;100109.09;;;13.56;74.09
61742;BME280;47650;49.848;9.620;2022-10-31T01:09:12;100105.13;;;13.60;73.85
61742;BME280;47650;49.848;9.620;2022-10-31T01:11:37;100103.19;;;13.62;73.85
61742;BME280;47650;49.848;9.620;2022-10-31T01:14:02;100080.88;;;13.45;73.53
61742;BME280;47650;49.848;9.620;2022-10-31T01:16:28;100110.38;;;13.69;73.84
61742;BME280;47650;49.848;9.620;2022-10-31T01:18:55;100101.72;;;13.67;73.08
61742;BME280;47650;49.848;9.620;2022-10-31T01:21:24;100101.94;;;13.74;73.19
61742;BME280;47650;49.848;9.620;2022-10-31T01:23:51;100092.78;;;13.77;73.26
61742;BME280;47650;49.848;9.620;2022-10-31T01:26:21;100098.28;;;13.75;73.14
61742;BME280;47650;49.848;9.620;2022-10-31T01:28:52;100096.09;;;13.70;72.98
61742;BME280;47650;49.848;9.620;2022-10-31T01:31:20;100092.72;;;13.68;72.80
61742;BME280;47650;49.848;9.620;2022-10-31T01:33:53;100096.38;;;13.67;72.51
61742;BME280;47650;49.848;9.620;2022-10-31T01:36:30;100058.56;;;13.46;72.74
61742;BME280;47650;49.848;9.620;2022-10-31T01:38:58;100087.00;;;13.63;72.52
61742;BME280;47650;49.848;9.620;2022-10-31T01:41:31;100104.53;;;13.66;72.56
61742;BME280;47650;49.848;9.620;2022-10-31T01:46:46;100104.59;;;13.56;73.41
61742;BME280;47650;49.848;9.620;2022-10-31T01:49:21;100105.59;;;13.55;73.50
61742;BME280;47650;49.848;9.620;2022-10-31T01:51:52;100111.91;;;13.54;73.40
61742;BME280;47650;49.848;9.620;2022-10-31T01:54:22;100085.00;;;13.29;72.50
61742;BME280;47650;49.848;9.620;2022-10-31T01:56:50;100096.84;;;13.45;73.16
61742;BME280;47650;49.848;9.620;2022-10-31T01:59:19;100103.06;;;13.35;72.69
61742;BME280;47650;49.848;9.620;2022-10-31T02:01:46;100111.16;;;13.44;73.31
61742;BME280;47650;49.848;9.620;2022-10-31T02:04:14;100101.16;;;13.46;73.73
61742;BME280;47650;49.848;9.620;2022-10-31T02:06:47;100109.16;;;13.46;73.84
61742;BME280;47650;49.848;9.620;2022-10-31T02:09:14;100110.84;;;13.47;73.49
61742;BME280;47650;49.848;9.620;2022-10-31T02:11:41;100090.28;;;13.39;73.84
61742;BME280;47650;49.848;9.620;2022-10-31T02:14:09;100106.00;;;13.60;73.70
61742;BME280;47650;49.848;9.620;2022-10-31T02:16:35;100105.13;;;13.60;73.55
61742;BME280;47650;49.848;9.620;2022-10-31T02:19:00;100080.72;;;13.46;73.76
61742;BME280;47650;49.848;9.620;2022-10-31T02:21:40;100089.84;;;13.44;73.70
61742;BME280;47650;49.848;9.620;2022-10-31T02:37:52;100096.78;;;13.09;73.60
61742;BME280;47650;49.848;9.620;2022-10-31T02:40:25;100088.41;;;13.04;73.75
61742;BME280;47650;49.848;9.620;2022-10-31T02:43:19;100076.59;;;12.88;73.44
61742;BME280;47650;49.848;9.620;2022-10-31T02:45:52;100102.69;;;13.03;73.54
61742;BME280;47650;49.848;9.620;2022-10-31T02:48:28;100098.22;;;13.03;73.58
61742;BME280;47650;49.848;9.620;2022-10-31T02:50:58;100094.69;;;13.03;73.54
61742;BME280;47650;49.848;9.620;2022-10-31T02:53:25;100083.66;;;12.97;73.35
61742;BME280;47650;49.848;9.620;2022-10-31T02:56:00;100101.31;;;12.98;72.97
61742;BME280;47650;49.848;9.620;2022-10-31T02:58:31;100111.69;;;13.02;73.25
61742;BME280;47650;49.848;9.620;2022-10-31T03:09:48;100102.81;;;12.83;73.18
61742;BME280;47650;49.848;9.620;2022-10-31T03:12:24;100106.75;;;12.79;73.46
61742;BME280;47650;49.848;9.620;2022-10-31T03:17:45;100068.63;;;12.51;73.38
61742;BME280;47650;49.848;9.620;2022-10-31T03:20:14;100112.13;;;12.59;73.55
61742;BME280;47650;49.848;9.620;2022-10-31T03:22:48;100112.13;;;12.59;73.38
61742;BME280;47650;49.848;9.620;2022-10-31T03:25:15;100107.53;;;12.62;73.87
61742;BME280;47650;49.848;9.620;2022-10-31T03:27:42;100098.69;;;12.61;73.86
61742;BME280;47650;49.848;9.620;2022-10-31T03:30:18;100106.25;;;12.66;74.04
61742;BME280;47650;49.848;9.620;2022-10-31T03:32:50;100109.03;;;12.74;73.67
61742;BME280;47650;49.848;9.620;2022-10-31T03:35:19;100083.47;;;12.53;73.60
61742;BME280;47650;49.848;9.620;2022-10-31T03:37:47;100119.53;;;12.75;73.57
61742;BME280;47650;49.848;9.620;2022-10-31T03:40:14;100104.97;;;12.70;72.86
61742;BME280;47650;49.848;9.620;2022-10-31T03:42:44;100118.09;;;12.81;72.71
61742;BME280;47650;49.848;9.620;2022-10-31T03:45:14;100096.53;;;12.74;72.81
61742;BME280;47650;49.848;9.620;2022-10-31T03:47:42;100099.75;;;12.78;72.21
61742;BME280;47650;49.848;9.620;2022-10-31T03:50:10;100097.38;;;12.75;71.95
61742;BME280;47650;49.848;9.620;2022-10-31T03:56:07;100119.16;;;12.88;72.62
61742;BME280;47650;49.848;9.620;2022-10-31T03:58:12;100120.84;;;12.89;72.39
61742;BME280;47650;49.848;9.620;2022-10-31T04:00:43;100111.78;;;12.82;72.77
61742;BME280;47650;49.848;9.620;2022-10-31T04:03:12;100114.44;;;12.82;72.63
61742;BME280;47650;49.848;9.620;2022-10-31T04:05:42;100087.47;;;12.67;72.54
61742;BME280;47650;49.848;9.620;2022-10-31T04:08:12;100121.03;;;12.78;72.31
61742;BME280;47650;49.848;9.620;2022-10-31T04:10:43;100120.78;;;12.71;72.33
61742;BME280;47650;49.848;9.620;2022-10-31T04:13:20;100115.16;;;12.74;72.63
61742;BME280;47650;49.848;9.620;2022-10-31T04:15:49;100119.25;;;12.69;72.69
61742;BME280;47650;49.848;9.620;2022-10-31T04:18:17;100121.63;;;12.72;72.39
61742;BME280;47650;49.848;9.620;2022-10-31T04:20:44;100111.28;;;12.69;72.52
61742;BME280;47650;49.848;9.620;2022-10-31T04:23:21;100113.53;;;12.64;72.63
61742;BME280;47650;49.848;9.620;2022-10-31T04:25:47;100096.78;;;12.53;72.47
61742;BME280;47650;49.848;9.620;2022-10-31T04:28:13;100089.38;;;12.47;72.48
61742;BME280;47650;49.848;9.620;2022-10-31T04:30:38;100107.22;;;12.65;72.68
61742;BME280;47650;49.848;9.620;2022-10-31T04:33:03;100099.25;;;12.65;72.87
61742;BME280;47650;49.848;9.620;2022-10-31T04:35:29;100112.53;;;12.65;72.88
61742;BME280;47650;49.848;9.620;2022-10-31T04:37:54;100101.59;;;12.68;72.50
61742;BME280;47650;49.848;9.620;2022-10-31T04:40:19;100106.13;;;12.57;72.13
61742;BME280;47650;49.848;9.620;2022-10-31T04:42:44;100106.72;;;12.51;72.07
61742;BME280;47650;49.848;9.620;2022-10-31T04:45:10;100090.09;;;12.49;72.39
61742;BME280;47650;49.848;9.620;2022-10-31T04:47:35;100105.16;;;12.58;72.41
61742;BME280;47650;49.848;9.620;2022-10-31T04:50:01;100079.47;;;12.39;72.24
61742;BME280;47650;49.848;9.620;2022-10-31T04:52:27;100095.28;;;12.41;71.85
61742;BME280;47650;49.848;9.620;2022-10-31T04:54:53;100097.34;;;12.47;72.43
61742;BME280;47650;49.848;9.620;2022-10-31T04:57:18;100105.72;;;12.52;72.66
61742;BME280;47650;49.848;9.620;2022-10-31T04:59:51;100096.25;;;12.50;72.35
61742;BME280;47650;49.848;9.620;2022-10-31T05:02:17;100095.41;;;12.49;72.46
61742;BME280;47650;49.848;9.620;2022-10-31T05:04:42;100078.66;;;12.39;72.27
61742;BME280;47650;49.848;9.620;2022-10-31T05:07:07;100090.66;;;12.43;71.91
61742;BME280;47650;49.848;9.620;2022-10-31T05:09:34;100091.34;;;12.45;72.08
61742;BME280;47650;49.848;9.620;2022-10-31T05:11:59;100089.28;;;12.39;72.08
61742;BME280;47650;49.848;9.620;2022-10-31T05:14:24;100092.34;;;12.44;72.64
61742;BME280;47650;49.848;9.620;2022-10-31T05:16:50;100092.34;;;12.44;72.46
61742;BME280;47650;49.848;9.620;2022-10-31T05:19:15;100082.69;;;12.33;72.54
61742;BME280;47650;49.848;9.620;2022-10-31T05:21:40;100091.81;;;12.31;72.51
61742;BME280;47650;49.848;9.620;2022-10-31T05:24:06;100087.75;;;12.27;72.67
61742;BME280;47650;49.848;9.620;2022-10-31T05:26:35;100087.69;;;12.09;71.93
61742;BME280;47650;49.848;9.620;2022-10-31T05:29:01;100081.13;;;12.03;72.29
61742;BME280;47650;49.848;9.620;2022-10-31T05:31:26;100089.94;;;11.84;72.30
61742;BME280;47650;49.848;9.620;2022-10-31T05:33:52;100083.19;;;11.90;72.42
61742;BME280;47650;49.848;9.620;2022-10-31T05:36:17;100088.78;;;11.86;72.73
61742;BME280;47650;49.848;9.620;2022-10-31T05:38:43;100079.84;;;11.88;72.67
61742;BME280;47650;49.848;9.620;2022-10-31T05:41:10;100073.72;;;11.87;72.99
61742;BME280;47650;49.848;9.620;2022-10-31T05:43:35;100074.13;;;11.82;73.00
61742;BME280;47650;49.848;9.620;2022-10-31T05:46:02;100080.13;;;11.84;72.66
61742;BME280;47650;49.848;9.620;2022-10-31T05:48:27;99964.06;;;11.08;72.68
61742;BME280;47650;49.848;9.620;2022-10-31T05:50:52;100066.03;;;11.74;72.90
61742;BME280;47650;49.848;9.620;2022-10-31T05:53:18;100080.44;;;11.72;73.01
61742;BME280;47650;49.848;9.620;2022-10-31T05:55:49;100082.78;;;11.75;73.18
61742;BME280;47650;49.848;9.620;2022-10-31T05:58:14;100084.88;;;11.71;73.30
61742;BME280;47650;49.848;9.620;2022-10-31T06:00:39;100088.28;;;11.73;73.28
61742;BME280;47650;49.848;9.620;2022-10-31T06:03:07;100084.34;;;11.77;73.54
61742;BME280;47650;49.848;9.620;2022-10-31T06:05:33;100081.41;;;11.71;73.07
61742;BME280;47650;49.848;9.620;2022-10-31T06:07:58;100085.03;;;11.70;73.09
61742;BME280;47650;49.848;9.620;2022-10-31T06:10:24;100071.22;;;11.56;72.56
61742;BME280;47650;49.848;9.620;2022-10-31T06:12:50;100078.19;;;11.57;72.66
61742;BME280;47650;49.848;9.620;2022-10-31T06:15:15;100076.09;;;11.41;72.43
61742;BME280;47650;49.848;9.620;2022-10-31T06:17:42;100099.44;;;11.47;72.34
61742;BME280;47650;49.848;9.620;2022-10-31T06:20:08;100102.81;;;11.50;72.50
61742;BME280;47650;49.848;9.620;2022-10-31T06:22:33;100106.84;;;11.54;72.20
61742;BME280;47650;49.848;9.620;2022-10-31T06:24:59;100108.66;;;11.53;72.37
61742;BME280;47650;49.848;9.620;2022-10-31T06:27:27;100107.81;;;11.62;72.37
61742;BME280;47650;49.848;9.620;2022-10-31T06:29:53;100075.56;;;11.47;72.35
61742;BME280;47650;49.848;9.620;2022-10-31T06:32:18;100077.34;;;11.47;71.80
61742;BME280;47650;49.848;9.620;2022-10-31T06:34:44;100107.84;;;11.72;71.69
61742;BME280;47650;49.848;9.620;2022-10-31T06:37:12;100110.34;;;11.64;70.70
61742;BME280;47650;49.848;9.620;2022-10-31T06:39:37;100112.16;;;11.54;70.73
61742;BME280;47650;49.848;9.620;2022-10-31T06:42:03;100096.66;;;11.39;70.85
61742;BME280;47650;49.848;9.620;2022-10-31T06:44:31;100072.59;;;11.12;70.81
61742;BME280;47650;49.848;9.620;2022-10-31T06:46:57;100112.16;;;11.34;70.87
61742;BME280;47650;49.848;9.620;2022-10-31T06:49:29;100108.50;;;11.25;70.85
61742;BME280;47650;49.848;9.620;2022-10-31T06:51:55;100109.91;;;11.20;70.42
61742;BME280;47650;49.848;9.620;2022-10-31T06:54:22;100115.22;;;11.20;70.71
61742;BME280;47650;49.848;9.620;2022-10-31T06:56:48;100088.25;;;11.15;70.87
61742;BME280;47650;49.848;9.620;2022-10-31T06:59:14;100083.69;;;10.86;69.45
61742;BME280;47650;49.848;9.620;2022-10-31T07:01:48;100121.97;;;10.93;72.01
61742;BME280;47650;49.848;9.620;2022-10-31T07:04:13;100126.69;;;11.30;72.27
61742;BME280;47650;49.848;9.620;2022-10-31T07:06:38;100129.63;;;11.46;72.82
61742;BME280;47650;49.848;9.620;2022-10-31T07:09:04;100122.66;;;11.55;72.08
61742;BME280;47650;49.848;9.620;2022-10-31T07:11:30;100106.44;;;11.68;71.92
61742;BME280;47650;49.848;9.620;2022-10-31T07:13:56;100120.72;;;11.96;71.53
61742;BME280;47650;49.848;9.620;2022-10-31T07:16:21;100116.50;;;12.13;70.79
61742;BME280;47650;49.848;9.620;2022-10-31T07:18:46;100085.75;;;12.01;69.32
61742;BME280;47650;49.848;9.620;2022-10-31T07:21:11;100116.72;;;12.30;69.94
61742;BME280;47650;49.848;9.620;2022-10-31T07:23:38;100105.25;;;12.29;68.94
61742;BME280;47650;49.848;9.620;2022-10-31T07:26:05;100114.19;;;12.38;69.20
61742;BME280;47650;49.848;9.620;2022-10-31T07:28:31;100124.22;;;12.54;69.47
61742;BME280;47650;49.848;9.620;2022-10-31T07:30:57;100119.44;;;12.57;69.22
61742;BME280;47650;49.848;9.620;2022-10-31T07:33:23;100110.75;;;12.65;68.38
61742;BME280;47650;49.848;9.620;2022-10-31T07:35:51;100105.91;;;12.78;68.42
61742;BME280;47650;49.848;9.620;2022-10-31T07:38:16;100103.94;;;12.81;68.38
61742;BME280;47650;49.848;9.620;2022-10-31T07:40:42;100125.09;;;13.10;68.39
61742;BME280;47650;49.848;9.620;2022-10-31T07:43:10;100112.16;;;13.15;68.56
61742;BME280;47650;49.848;9.620;2022-10-31T07:45:36;100122.41;;;13.38;68.03
61742;BME280;47650;49.848;9.620;2022-10-31T07:48:01;100128.44;;;13.58;67.50
61742;BME280;47650;49.848;9.620;2022-10-31T07:50:31;100116.66;;;13.60;66.46
61742;BME280;47650;49.848;9.620;2022-10-31T07:53:08;99974.34;;;12.91;66.91
61742;BME280;47650;49.848;9.620;2022-10-31T07:55:34;100122.56;;;13.90;65.96
61742;BME280;47650;49.848;9.620;2022-10-31T07:58:19;100125.78;;;13.40;66.48
61742;BME280;47650;49.848;9.620;2022-10-31T08:00:47;100117.91;;;13.56;67.18
61742;BME280;47650;49.848;9.620;2022-10-31T08:03:16;100123.28;;;13.28;68.42
61742;BME280;47650;49.848;9.620;2022-10-31T08:05:42;100115.56;;;13.25;69.03
61742;BME280;47650;49.848;9.620;2022-10-31T08:08:10;100129.47;;;13.29;68.69
61742;BME280;47650;49.848;9.620;2022-10-31T08:10:37;100126.97;;;13.45;69.58
61742;BME280;47650;49.848;9.620;2022-10-31T08:13:13;100123.03;;;13.67;69.79
61742;BME280;47650;49.848;9.620;2022-10-31T08:15:38;100105.41;;;13.92;69.72
61742;BME280;47650;49.848;9.620;2022-10-31T08:18:11;100081.78;;;13.98;68.87
61742;BME280;47650;49.848;9.620;2022-10-31T08:20:37;100071.28;;;13.96;66.43
61742;BME280;47650;49.848;9.620;2022-10-31T08:23:04;100090.22;;;14.37;66.81
61742;BME280;47650;49.848;9.620;2022-10-31T08:25:31;100106.16;;;14.55;66.35
61742;BME280;47650;49.848;9.620;2022-10-31T08:27:57;100106.56;;;14.42;65.95
61742;BME280;47650;49.848;9.620;2022-10-31T08:30:28;100108.97;;;14.80;66.67
61742;BME280;47650;49.848;9.620;2022-10-31T08:33:15;100108.09;;;14.71;65.95
61742;BME280;47650;49.848;9.620;2022-10-31T08:35:42;100088.63;;;14.87;65.90
61742;BME280;47650;49.848;9.620;2022-10-31T08:38:10;100102.22;;;15.10;65.35
61742;BME280;47650;49.848;9.620;2022-10-31T08:40:35;100092.81;;;14.90;65.13
61742;BME280;47650;49.848;9.620;2022-10-31T08:43:12;100064.66;;;14.00;66.69
61742;BME280;47650;49.848;9.620;2022-10-31T08:45:38;100091.25;;;13.92;69.19
61742;BME280;47650;49.848;9.620;2022-10-31T08:48:06;100108.16;;;14.27;69.46
61742;BME280;47650;49.848;9.620;2022-10-31T08:50:33;100100.63;;;14.57;69.95
61742;BME280;47650;49.848;9.620;2022-10-31T08:53:06;100101.94;;;14.79;68.62
61742;BME280;47650;49.848;9.620;2022-10-31T08:55:33;100104.88;;;15.02;67.98
61742;BME280;47650;49.848;9.620;2022-10-31T08:57:59;100052.16;;;14.61;66.12
61742;BME280;47650;49.848;9.620;2022-10-31T09:00:25;100089.59;;;15.37;67.06
61742;BME280;47650;49.848;9.620;2022-10-31T09:03:09;100086.94;;;15.37;66.78
61742;BME280;47650;49.848;9.620;2022-10-31T09:05:35;100085.94;;;15.54;65.08
61742;BME280;47650;49.848;9.620;2022-10-31T09:08:02;100097.25;;;15.23;66.29
61742;BME280;47650;49.848;9.620;2022-10-31T09:10:30;100090.91;;;15.25;66.86
61742;BME280;47650;49.848;9.620;2022-10-31T09:12:56;100092.28;;;15.37;67.03
61742;BME280;47650;49.848;9.620;2022-10-31T09:15:24;100078.75;;;15.47;67.52
61742;BME280;47650;49.848;9.620;2022-10-31T09:17:50;100083.63;;;15.68;65.97
61742;BME280;47650;49.848;9.620;2022-10-31T09:20:15;100091.84;;;14.99;66.17
61742;BME280;47650;49.848;9.620;2022-10-31T09:22:41;100074.31;;;14.88;69.20
61742;BME280;47650;49.848;9.620;2022-10-31T09:25:06;100074.34;;;15.04;68.67
61742;BME280;47650;49.848;9.620;2022-10-31T09:27:32;100076.56;;;15.50;68.99
61742;BME280;47650;49.848;9.620;2022-10-31T09:29:57;100074.63;;;15.77;67.91
61742;BME280;47650;49.848;9.620;2022-10-31T09:32:24;100074.91;;;14.74;68.00
61742;BME280;47650;49.848;9.620;2022-10-31T09:34:49;100071.19;;;15.17;68.87
61742;BME280;47650;49.848;9.620;2022-10-31T09:37:14;99987.28;;;14.61;68.36
61742;BME280;47650;49.848;9.620;2022-10-31T09:39:42;100076.00;;;14.97;67.41
61742;BME280;47650;49.848;9.620;2022-10-31T09:45:29;100053.09;;;14.95;67.10
61742;BME280;47650;49.848;9.620;2022-10-31T09:48:07;100067.59;;;15.68;68.77
61742;BME280;47650;49.848;9.620;2022-10-31T09:50:56;100068.25;;;15.86;68.37
61742;BME280;47650;49.848;9.620;2022-10-31T09:53:33;100055.88;;;16.02;66.87
61742;BME280;47650;49.848;9.620;2022-10-31T09:56:10;100058.16;;;16.29;66.52
61742;BME280;47650;49.848;9.620;2022-10-31T09:58:42;100035.03;;;16.36;66.18
61742;BME280;47650;49.848;9.620;2022-10-31T10:04:30;100052.22;;;15.94;67.26
61742;BME280;47650;49.848;9.620;2022-10-31T10:06:56;100056.50;;;16.28;66.31
61742;BME280;47650;49.848;9.620;2022-10-31T10:09:26;100033.16;;;16.45;66.24
61742;BME280;47650;49.848;9.620;2022-10-31T10:12:22;100056.78;;;16.81;65.37
61742;BME280;47650;49.848;9.620;2022-10-31T10:15:19;100052.28;;;16.34;65.26
61742;BME280;47650;49.848;9.620;2022-10-31T10:18:11;100042.09;;;16.29;66.96
61742;BME280;47650;49.848;9.620;2022-10-31T10:27:05;100039.88;;;16.81;65.51
61742;BME280;47650;49.848;9.620;2022-10-31T10:29:47;100029.41;;;17.02;65.16
61742;BME280;47650;49.848;9.620;2022-10-31T10:32:24;100034.31;;;17.22;64.14
61742;BME280;47650;49.848;9.620;2022-10-31T10:37:49;100004.03;;;17.59;63.07
61742;BME280;47650;49.848;9.620;2022-10-31T10:40:24;100022.34;;;17.94;62.24
61742;BME280;47650;49.848;9.620;2022-10-31T10:43:33;100016.31;;;17.92;61.37
61742;BME280;47650;49.848;9.620;2022-10-31T10:49:08;100020.13;;;18.12;60.98
61742;BME280;47650;49.848;9.620;2022-10-31T10:51:46;100015.88;;;17.65;61.25
61742;BME280;47650;49.848;9.620;2022-10-31T10:59:48;99975.91;;;18.23;60.68
61742;BME280;47650;49.848;9.620;2022-10-31T11:02:18;99993.81;;;18.37;59.86
61742;BME280;47650;49.848;9.620;2022-10-31T11:04:45;100004.22;;;18.26;60.07
61742;BME280;47650;49.848;9.620;2022-10-31T11:07:12;99991.53;;;18.19;61.28
61742;BME280;47650;49.848;9.620;2022-10-31T11:09:37;99975.63;;;17.88;61.66
61742;BME280;47650;49.848;9.620;2022-10-31T11:12:17;99984.22;;;18.28;61.46
61742;BME280;47650;49.848;9.620;2022-10-31T11:15:00;99980.75;;;18.49;60.39
61742;BME280;47650;49.848;9.620;2022-10-31T11:17:31;99978.75;;;18.21;60.45
61742;BME280;47650;49.848;9.620;2022-10-31T11:20:03;99959.59;;;18.39;61.06
61742;BME280;47650;49.848;9.620;2022-10-31T11:22:29;99970.97;;;18.27;60.58
61742;BME280;47650;49.848;9.620;2022-10-31T11:24:55;99968.66;;;18.23;61.29
61742;BME280;47650;49.848;9.620;2022-10-31T11:27:23;99962.75;;;18.43;61.20
61742;BME280;47650;49.848;9.620;2022-10-31T11:29:49;99946.00;;;18.41;61.46
61742;BME280;47650;49.848;9.620;2022-10-31T11:32:20;99957.25;;;18.51;60.97
61742;BME280;47650;49.848;9.620;2022-10-31T11:34:49;99949.97;;;18.67;60.58
61742;BME280;47650;49.848;9.620;2022-10-31T11:37:21;99955.63;;;18.72;60.32
61742;BME280;47650;49.848;9.620;2022-10-31T11:39:52;99943.59;;;18.83;60.33
61742;BME280;47650;49.848;9.620;2022-10-31T11:42:22;99946.75;;;18.93;60.25
61742;BME280;47650;49.848;9.620;2022-10-31T11:44:49;99933.50;;;18.70;60.67
61742;BME280;47650;49.848;9.620;2022-10-31T11:47:17;99955.22;;;18.90;60.39
61742;BME280;47650;49.848;9.620;2022-10-31T11:49:44;99942.56;;;18.84;60.92
61742;BME280;47650;49.848;9.620;2022-10-31T11:52:23;99936.44;;;18.75;60.48
61742;BME280;47650;49.848;9.620;2022-10-31T11:55:01;99913.44;;;18.87;60.30
61742;BME280;47650;49.848;9.620;2022-10-31T11:57:49;99937.41;;;18.67;60.28
61742;BME280;47650;49.848;9.620;2022-10-31T12:00:27;99924.69;;;18.76;60.81
61742;BME280;47650;49.848;9.620;2022-10-31T12:06:06;99886.25;;;18.17;61.22
61742;BME280;47650;49.848;9.620;2022-10-31T12:08:35;99904.16;;;18.32;62.03
61742;BME280;47650;49.848;9.620;2022-10-31T12:19:53;99898.16;;;18.51;62.52
61742;BME280;47650;49.848;9.620;2022-10-31T12:25:35;99889.88;;;18.68;62.26
61742;BME280;47650;49.848;9.620;2022-10-31T12:28:35;99877.69;;;18.87;61.53
61742;BME280;47650;49.848;9.620;2022-10-31T12:31:20;99880.28;;;18.80;61.23
61742;BME280;47650;49.848;9.620;2022-10-31T12:39:10;99865.72;;;19.11;60.36
61742;BME280;47650;49.848;9.620;2022-10-31T12:41:47;99857.97;;;18.36;62.14
61742;BME280;47650;49.848;9.620;2022-10-31T12:50:50;99850.22;;;18.27;63.89
61742;BME280;47650;49.848;9.620;2022-10-31T12:55:29;99848.00;;;18.73;62.96
61742;BME280;47650;49.848;9.620;2022-10-31T12:58:28;99834.00;;;18.78;61.95
61742;BME280;47650;49.848;9.620;2022-10-31T13:01:07;99816.19;;;18.77;61.79
61742;BME280;47650;49.848;9.620;2022-10-31T13:06:29;99826.72;;;18.93;62.34
61742;BME280;47650;49.848;9.620;2022-10-31T13:09:00;99824.72;;;19.02;61.74
61742;BME280;47650;49.848;9.620;2022-10-31T13:11:49;99810.09;;;18.83;61.71
61742;BME280;47650;49.848;9.620;2022-10-31T13:14:27;99824.59;;;19.17;61.99
61742;BME280;47650;49.848;9.620;2022-10-31T13:16:58;99794.22;;;19.16;61.05
61742;BME280;47650;49.848;9.620;2022-10-31T13:19:31;99813.41;;;19.42;60.24
61742;BME280;47650;49.848;9.620;2022-10-31T13:22:08;99805.53;;;19.40;60.09
61742;BME280;47650;49.848;9.620;2022-10-31T13:24:57;99800.03;;;19.20;60.48
61742;BME280;47650;49.848;9.620;2022-10-31T13:30:19;99778.00;;;19.03;62.10
61742;BME280;47650;49.848;9.620;2022-10-31T13:35:31;99785.19;;;18.96;61.98
61742;BME280;47650;49.848;9.620;2022-10-31T13:46:24;99769.69;;;18.27;63.76
61742;BME280;47650;49.848;9.620;2022-10-31T13:48:51;99764.44;;;18.61;63.44
61742;BME280;47650;49.848;9.620;2022-10-31T13:51:37;99761.59;;;18.70;63.40
61742;BME280;47650;49.848;9.620;2022-10-31T13:54:32;99717.59;;;18.42;63.20
61742;BME280;47650;49.848;9.620;2022-10-31T13:56:59;99719.88;;;18.67;64.05
61742;BME280;47650;49.848;9.620;2022-10-31T13:59:29;99752.88;;;18.61;63.97
61742;BME280;47650;49.848;9.620;2022-10-31T14:02:00;99758.00;;;17.91;65.77
61742;BME280;47650;49.848;9.620;2022-10-31T14:07:10;99754.81;;;17.36;68.86
61742;BME280;47650;49.848;9.620;2022-10-31T14:09:39;99751.53;;;17.71;68.86
61742;BME280;47650;49.848;9.620;2022-10-31T14:12:35;99750.03;;;17.68;67.60
61742;BME280;47650;49.848;9.620;2022-10-31T14:18:04;99731.50;;;18.25;67.88
61742;BME280;47650;49.848;9.620;2022-10-31T14:20:44;99737.56;;;18.61;67.33
61742;BME280;47650;49.848;9.620;2022-10-31T14:26:16;99735.19;;;18.45;64.74
61742;BME280;47650;49.848;9.620;2022-10-31T14:28:43;99735.97;;;17.81;67.23
61742;BME280;47650;49.848;9.620;2022-10-31T14:36:59;99706.97;;;17.18;70.68
61742;BME280;47650;49.848;9.620;2022-10-31T14:42:41;99715.44;;;18.10;69.86
61742;BME280;47650;49.848;9.620;2022-10-31T14:45:39;99709.50;;;18.36;68.65
61742;BME280;47650;49.848;9.620;2022-10-31T14:50:48;99690.53;;;18.66;66.34
61742;BME280;47650;49.848;9.620;2022-10-31T14:53:22;99682.41;;;18.87;65.81
61742;BME280;47650;49.848;9.620;2022-10-31T14:55:49;99696.63;;;18.81;64.67
61742;BME280;47650;49.848;9.620;2022-10-31T14:58:21;99693.66;;;18.69;64.94
61742;BME280;47650;49.848;9.620;2022-10-31T15:00:48;99696.38;;;17.98;67.28
61742;BME280;47650;49.848;9.620;2022-10-31T15:03:20;99664.75;;;17.93;68.47
61742;BME280;47650;49.848;9.620;2022-10-31T15:05:52;99677.75;;;18.46;68.73
61742;BME280;47650;49.848;9.620;2022-10-31T15:11:02;99651.66;;;18.61;67.07